sensor_id;sensor_type;location;lat;lon;timestamp;P1;durP1;ratioP1;P2;durP2;ratioP2
28022;SDS011;67403;50.104;8.758;2023-05-10T00:02:00;2.42;;;1.80;;
28022;SDS011;67403;50.104;8.758;2023-05-10T00:04:27;3.22;;;1.80;;
28022;SDS011;67403;50.104;8.758;2023-05-10T00:06:53;2.55;;;1.90;;
28022;SDS011;67403;50.104;8.758;2023-05-10T00:09:20;2.05;;;1.77;;
28022;SDS011;67403;50.104;8.758;2023-05-10T00:11:49;3.38;;;1.40;;
28022;SDS011;67403;50.104;8.758;2023-05-10T00:14:16;1.65;;;1.23;;
28022;SDS011;67403;50.104;8.758;2023-05-10T00:16:43;1.65;;;1.42;;
28022;SDS011;67403;50.104;8.758;2023-05-10T00:19:10;1.67;;;1.50;;
28022;SDS011;67403;50.104;8.758;2023-05-10T00:21:37;3.63;;;1.10;;
28022;SDS011;67403;50.104;8.758;2023-05-10T00:24:04;1.27;;;1.15;;
28022;SDS011;67403;50.104;8.758;2023-05-10T00:26:31;1.88;;;1.13;;
28022;SDS011;67403;50.104;8.758;2023-05-10T00:28:59;2.25;;;1.35;;
28022;SDS011;67403;50.104;8.758;2023-05-10T00:31:26;1.77;;;1.45;;
28022;SDS011;67403;50.104;8.758;2023-05-10T00:33:54;2.80;;;1.48;;
28022;SDS011;67403;50.104;8.758;2023-05-10T00:36:21;1.30;;;1.20;;
28022;SDS011;67403;50.104;8.758;2023-05-10T00:38:48;2.58;;;1.20;;
28022;SDS011;67403;50.104;8.758;2023-05-10T00:41:14;1.88;;;0.95;;
28022;SDS011;67403;50.104;8.758;2023-05-10T00:43:41;4.50;;;1.20;;
28022;SDS011;67403;50.104;8.758;2023-05-10T00:46:10;1.10;;;1.00;;
28022;SDS011;67403;50.104;8.758;2023-05-10T00:48:37;1.92;;;1.17;;
28022;SDS011;67403;50.104;8.758;2023-05-10T00:51:04;1.35;;;0.90;;
28022;SDS011;67403;50.104;8.758;2023-05-10T00:53:32;0.98;;;0.88;;
28022;SDS011;67403;50.104;8.758;2023-05-10T00:56:00;2.30;;;1.13;;
28022;SDS011;67403;50.104;8.758;2023-05-10T00:58:28;0.93;;;0.80;;
28022;SDS011;67403;50.104;8.758;2023-05-10T01:00:56;1.20;;;0.93;;
28022;SDS011;67403;50.104;8.758;2023-05-10T01:03:25;0.85;;;0.70;;
28022;SDS011;67403;50.104;8.758;2023-05-10T01:05:52;1.38;;;1.00;;
28022;SDS011;67403;50.104;8.758;2023-05-10T01:08:19;2.75;;;1.08;;
28022;SDS011;67403;50.104;8.758;2023-05-10T01:10:47;1.35;;;0.80;;
28022;SDS011;67403;50.104;8.758;2023-05-10T01:13:15;1.00;;;0.80;;
28022;SDS011;67403;50.104;8.758;2023-05-10T01:15:49;1.77;;;1.00;;
28022;SDS011;67403;50.104;8.758;2023-05-10T01:18:16;5.88;;;0.80;;
28022;SDS011;67403;50.104;8.758;2023-05-10T01:20:48;1.23;;;0.93;;
28022;SDS011;67403;50.104;8.758;2023-05-10T01:23:27;1.52;;;0.93;;
28022;SDS011;67403;50.104;8.758;2023-05-10T01:26:19;2.90;;;1.13;;
28022;SDS011;67403;50.104;8.758;2023-05-10T01:29:11;0.80;;;0.73;;
28022;SDS011;67403;50.104;8.758;2023-05-10T01:32:08;0.85;;;0.73;;
28022;SDS011;67403;50.104;8.758;2023-05-10T01:34:45;0.82;;;0.80;;
28022;SDS011;67403;50.104;8.758;2023-05-10T01:37:20;0.60;;;0.60;;
28022;SDS011;67403;50.104;8.758;2023-05-10T01:39:53;1.02;;;0.93;;
28022;SDS011;67403;50.104;8.758;2023-05-10T01:42:26;0.68;;;0.63;;
28022;SDS011;67403;50.104;8.758;2023-05-10T01:45:00;0.70;;;0.65;;
28022;SDS011;67403;50.104;8.758;2023-05-10T01:47:35;1.67;;;0.77;;
28022;SDS011;67403;50.104;8.758;2023-05-10T01:50:07;0.70;;;0.70;;
28022;SDS011;67403;50.104;8.758;2023-05-10T01:52:38;1.08;;;0.82;;
28022;SDS011;67403;50.104;8.758;2023-05-10T01:55:09;1.27;;;0.65;;
28022;SDS011;67403;50.104;8.758;2023-05-10T01:57:40;0.73;;;0.60;;
28022;SDS011;67403;50.104;8.758;2023-05-10T02:00:10;0.70;;;0.70;;
28022;SDS011;67403;50.104;8.758;2023-05-10T02:02:40;1.08;;;0.90;;
28022;SDS011;67403;50.104;8.758;2023-05-10T02:05:10;1.08;;;0.88;;
28022;SDS011;67403;50.104;8.758;2023-05-10T02:07:39;2.05;;;0.90;;
28022;SDS011;67403;50.104;8.758;2023-05-10T02:10:06;0.80;;;0.80;;
28022;SDS011;67403;50.104;8.758;2023-05-10T02:12:36;1.20;;;0.88;;
28022;SDS011;67403;50.104;8.758;2023-05-10T02:15:05;1.45;;;1.15;;
28022;SDS011;67403;50.104;8.758;2023-05-10T02:17:34;1.13;;;0.80;;
28022;SDS011;67403;50.104;8.758;2023-05-10T02:20:05;1.10;;;0.68;;
28022;SDS011;67403;50.104;8.758;2023-05-10T02:22:34;0.82;;;0.82;;
28022;SDS011;67403;50.104;8.758;2023-05-10T02:25:03;0.80;;;0.80;;
28022;SDS011;67403;50.104;8.758;2023-05-10T02:27:31;1.33;;;0.90;;
28022;SDS011;67403;50.104;8.758;2023-05-10T02:30:00;0.82;;;0.82;;
28022;SDS011;67403;50.104;8.758;2023-05-10T02:32:27;0.80;;;0.80;;
28022;SDS011;67403;50.104;8.758;2023-05-10T02:34:56;0.80;;;0.80;;
28022;SDS011;67403;50.104;8.758;2023-05-10T02:37:26;1.45;;;0.70;;
28022;SDS011;67403;50.104;8.758;2023-05-10T02:39:54;1.60;;;0.90;;
28022;SDS011;67403;50.104;8.758;2023-05-10T02:42:23;1.30;;;0.98;;
28022;SDS011;67403;50.104;8.758;2023-05-10T02:44:53;1.60;;;0.90;;
28022;SDS011;67403;50.104;8.758;2023-05-10T02:47:22;1.20;;;0.95;;
28022;SDS011;67403;50.104;8.758;2023-05-10T02:49:49;2.33;;;1.10;;
28022;SDS011;67403;50.104;8.758;2023-05-10T02:52:18;1.08;;;0.90;;
28022;SDS011;67403;50.104;8.758;2023-05-10T02:54:51;1.20;;;1.00;;
28022;SDS011;67403;50.104;8.758;2023-05-10T02:57:22;1.30;;;1.20;;
28022;SDS011;67403;50.104;8.758;2023-05-10T02:59:52;0.90;;;0.90;;
28022;SDS011;67403;50.104;8.758;2023-05-10T03:02:20;1.20;;;0.75;;
28022;SDS011;67403;50.104;8.758;2023-05-10T03:04:47;1.30;;;1.00;;
28022;SDS011;67403;50.104;8.758;2023-05-10T03:07:14;1.70;;;0.98;;
28022;SDS011;67403;50.104;8.758;2023-05-10T03:09:41;1.52;;;1.05;;
28022;SDS011;67403;50.104;8.758;2023-05-10T03:12:11;0.80;;;0.80;;
28022;SDS011;67403;50.104;8.758;2023-05-10T03:14:49;1.65;;;1.10;;
28022;SDS011;67403;50.104;8.758;2023-05-10T03:17:25;0.90;;;0.82;;
28022;SDS011;67403;50.104;8.758;2023-05-10T03:19:57;1.48;;;0.93;;
28022;SDS011;67403;50.104;8.758;2023-05-10T03:22:30;1.05;;;0.90;;
28022;SDS011;67403;50.104;8.758;2023-05-10T03:24:59;4.40;;;1.13;;
28022;SDS011;67403;50.104;8.758;2023-05-10T03:27:30;0.90;;;0.90;;
28022;SDS011;67403;50.104;8.758;2023-05-10T03:29:58;1.95;;;0.98;;
28022;SDS011;67403;50.104;8.758;2023-05-10T03:32:25;1.25;;;1.10;;
28022;SDS011;67403;50.104;8.758;2023-05-10T03:34:53;1.33;;;0.95;;
28022;SDS011;67403;50.104;8.758;2023-05-10T03:37:20;0.90;;;0.90;;
28022;SDS011;67403;50.104;8.758;2023-05-10T03:39:47;1.85;;;1.00;;
28022;SDS011;67403;50.104;8.758;2023-05-10T03:42:14;1.17;;;1.02;;
28022;SDS011;67403;50.104;8.758;2023-05-10T03:44:44;0.80;;;0.80;;
28022;SDS011;67403;50.104;8.758;2023-05-10T03:47:11;1.48;;;1.30;;
28022;SDS011;67403;50.104;8.758;2023-05-10T03:49:38;1.05;;;0.98;;
28022;SDS011;67403;50.104;8.758;2023-05-10T03:52:05;1.05;;;0.98;;
28022;SDS011;67403;50.104;8.758;2023-05-10T03:54:32;1.60;;;1.20;;
28022;SDS011;67403;50.104;8.758;2023-05-10T03:56:59;1.30;;;0.93;;
28022;SDS011;67403;50.104;8.758;2023-05-10T03:59:26;1.55;;;0.93;;
28022;SDS011;67403;50.104;8.758;2023-05-10T04:01:54;1.42;;;1.17;;
28022;SDS011;67403;50.104;8.758;2023-05-10T04:04:21;0.88;;;0.88;;
28022;SDS011;67403;50.104;8.758;2023-05-10T04:06:48;4.07;;;0.80;;
28022;SDS011;67403;50.104;8.758;2023-05-10T04:09:15;2.05;;;0.90;;
28022;SDS011;67403;50.104;8.758;2023-05-10T04:11:42;3.80;;;1.08;;
28022;SDS011;67403;50.104;8.758;2023-05-10T04:14:09;1.13;;;1.02;;
28022;SDS011;67403;50.104;8.758;2023-05-10T04:16:36;1.20;;;1.10;;
28022;SDS011;67403;50.104;8.758;2023-05-10T04:19:04;1.50;;;1.40;;
28022;SDS011;67403;50.104;8.758;2023-05-10T04:21:31;2.05;;;1.30;;
28022;SDS011;67403;50.104;8.758;2023-05-10T04:23:58;4.00;;;1.30;;
28022;SDS011;67403;50.104;8.758;2023-05-10T04:26:25;2.08;;;1.25;;
28022;SDS011;67403;50.104;8.758;2023-05-10T04:28:52;9.23;;;1.50;;
28022;SDS011;67403;50.104;8.758;2023-05-10T04:31:19;1.83;;;1.30;;
28022;SDS011;67403;50.104;8.758;2023-05-10T04:33:46;1.55;;;1.40;;
28022;SDS011;67403;50.104;8.758;2023-05-10T04:36:14;1.63;;;1.23;;
28022;SDS011;67403;50.104;8.758;2023-05-10T04:38:41;1.60;;;1.35;;
28022;SDS011;67403;50.104;8.758;2023-05-10T04:41:08;2.38;;;1.20;;
28022;SDS011;67403;50.104;8.758;2023-05-10T04:43:36;1.52;;;1.17;;
28022;SDS011;67403;50.104;8.758;2023-05-10T04:46:03;1.60;;;1.27;;
28022;SDS011;67403;50.104;8.758;2023-05-10T04:48:31;1.40;;;1.25;;
28022;SDS011;67403;50.104;8.758;2023-05-10T04:50:58;1.50;;;1.38;;
28022;SDS011;67403;50.104;8.758;2023-05-10T04:53:26;1.85;;;1.58;;
28022;SDS011;67403;50.104;8.758;2023-05-10T04:55:53;2.20;;;1.60;;
28022;SDS011;67403;50.104;8.758;2023-05-10T04:58:20;2.03;;;1.48;;
28022;SDS011;67403;50.104;8.758;2023-05-10T05:00:47;1.80;;;1.50;;
28022;SDS011;67403;50.104;8.758;2023-05-10T05:03:14;1.65;;;1.33;;
28022;SDS011;67403;50.104;8.758;2023-05-10T05:05:40;1.60;;;1.40;;
28022;SDS011;67403;50.104;8.758;2023-05-10T05:08:07;3.45;;;1.48;;
28022;SDS011;67403;50.104;8.758;2023-05-10T05:10:36;1.70;;;1.50;;
28022;SDS011;67403;50.104;8.758;2023-05-10T05:13:02;1.92;;;1.63;;
28022;SDS011;67403;50.104;8.758;2023-05-10T05:15:29;1.67;;;1.58;;
28022;SDS011;67403;50.104;8.758;2023-05-10T05:17:56;1.58;;;1.25;;
28022;SDS011;67403;50.104;8.758;2023-05-10T05:20:23;1.77;;;1.58;;
28022;SDS011;67403;50.104;8.758;2023-05-10T05:22:50;2.10;;;1.40;;
28022;SDS011;67403;50.104;8.758;2023-05-10T05:25:17;2.03;;;1.33;;
28022;SDS011;67403;50.104;8.758;2023-05-10T05:27:45;1.77;;;1.27;;
28022;SDS011;67403;50.104;8.758;2023-05-10T05:30:12;1.95;;;1.58;;
28022;SDS011;67403;50.104;8.758;2023-05-10T05:32:39;3.00;;;1.70;;
28022;SDS011;67403;50.104;8.758;2023-05-10T05:35:06;4.20;;;1.90;;
28022;SDS011;67403;50.104;8.758;2023-05-10T05:37:33;4.85;;;1.90;;
28022;SDS011;67403;50.104;8.758;2023-05-10T05:40:00;3.05;;;1.77;;
28022;SDS011;67403;50.104;8.758;2023-05-10T05:42:28;3.55;;;2.45;;
28022;SDS011;67403;50.104;8.758;2023-05-10T05:44:56;3.08;;;2.17;;
28022;SDS011;67403;50.104;8.758;2023-05-10T05:47:23;4.07;;;1.75;;
28022;SDS011;67403;50.104;8.758;2023-05-10T05:49:50;5.28;;;1.80;;
28022;SDS011;67403;50.104;8.758;2023-05-10T05:52:17;3.33;;;2.03;;
28022;SDS011;67403;50.104;8.758;2023-05-10T05:54:44;2.53;;;1.98;;
28022;SDS011;67403;50.104;8.758;2023-05-10T05:57:10;2.58;;;2.28;;
28022;SDS011;67403;50.104;8.758;2023-05-10T05:59:37;2.28;;;1.85;;
28022;SDS011;67403;50.104;8.758;2023-05-10T06:02:08;2.33;;;1.93;;
28022;SDS011;67403;50.104;8.758;2023-05-10T06:04:35;3.70;;;2.33;;
28022;SDS011;67403;50.104;8.758;2023-05-10T06:07:02;2.22;;;1.73;;
28022;SDS011;67403;50.104;8.758;2023-05-10T06:09:29;3.42;;;2.28;;
28022;SDS011;67403;50.104;8.758;2023-05-10T06:11:56;7.18;;;2.60;;
28022;SDS011;67403;50.104;8.758;2023-05-10T06:14:23;3.92;;;1.98;;
28022;SDS011;67403;50.104;8.758;2023-05-10T06:16:50;2.20;;;1.80;;
28022;SDS011;67403;50.104;8.758;2023-05-10T06:19:18;6.10;;;2.70;;
28022;SDS011;67403;50.104;8.758;2023-05-10T06:21:45;2.92;;;2.33;;
28022;SDS011;67403;50.104;8.758;2023-05-10T06:24:12;2.28;;;2.00;;
28022;SDS011;67403;50.104;8.758;2023-05-10T06:26:39;3.75;;;2.15;;
28022;SDS011;67403;50.104;8.758;2023-05-10T06:29:06;2.40;;;1.90;;
28022;SDS011;67403;50.104;8.758;2023-05-10T06:31:33;2.97;;;2.13;;
28022;SDS011;67403;50.104;8.758;2023-05-10T06:34:00;3.05;;;2.30;;
28022;SDS011;67403;50.104;8.758;2023-05-10T06:38:58;2.95;;;2.13;;
28022;SDS011;67403;50.104;8.758;2023-05-10T06:41:25;3.53;;;2.67;;
28022;SDS011;67403;50.104;8.758;2023-05-10T06:43:52;3.60;;;2.42;;
28022;SDS011;67403;50.104;8.758;2023-05-10T06:46:19;2.85;;;2.00;;
28022;SDS011;67403;50.104;8.758;2023-05-10T06:48:45;2.42;;;2.20;;
28022;SDS011;67403;50.104;8.758;2023-05-10T06:51:12;4.25;;;2.00;;
28022;SDS011;67403;50.104;8.758;2023-05-10T06:53:41;4.30;;;1.88;;
28022;SDS011;67403;50.104;8.758;2023-05-10T06:56:07;3.20;;;2.30;;
28022;SDS011;67403;50.104;8.758;2023-05-10T06:58:34;7.07;;;2.47;;
28022;SDS011;67403;50.104;8.758;2023-05-10T07:01:02;3.60;;;2.58;;
28022;SDS011;67403;50.104;8.758;2023-05-10T07:03:29;3.35;;;2.08;;
28022;SDS011;67403;50.104;8.758;2023-05-10T07:05:59;2.47;;;2.28;;
28022;SDS011;67403;50.104;8.758;2023-05-10T07:08:28;4.35;;;2.40;;
28022;SDS011;67403;50.104;8.758;2023-05-10T07:11:00;3.53;;;2.08;;
28022;SDS011;67403;50.104;8.758;2023-05-10T07:13:28;3.95;;;2.10;;
28022;SDS011;67403;50.104;8.758;2023-05-10T07:15:56;4.35;;;2.40;;
28022;SDS011;67403;50.104;8.758;2023-05-10T07:18:23;2.53;;;1.67;;
28022;SDS011;67403;50.104;8.758;2023-05-10T07:20:50;4.95;;;2.40;;
28022;SDS011;67403;50.104;8.758;2023-05-10T07:23:17;3.33;;;1.90;;
28022;SDS011;67403;50.104;8.758;2023-05-10T07:25:45;3.78;;;2.10;;
28022;SDS011;67403;50.104;8.758;2023-05-10T07:28:13;5.97;;;3.15;;
28022;SDS011;67403;50.104;8.758;2023-05-10T07:30:41;6.28;;;3.33;;
28022;SDS011;67403;50.104;8.758;2023-05-10T07:33:09;3.72;;;1.95;;
28022;SDS011;67403;50.104;8.758;2023-05-10T07:35:37;4.30;;;2.00;;
28022;SDS011;67403;50.104;8.758;2023-05-10T07:38:04;5.03;;;1.83;;
28022;SDS011;67403;50.104;8.758;2023-05-10T07:40:31;2.42;;;1.92;;
28022;SDS011;67403;50.104;8.758;2023-05-10T07:42:58;5.57;;;1.90;;
28022;SDS011;67403;50.104;8.758;2023-05-10T07:45:28;3.58;;;2.22;;
28022;SDS011;67403;50.104;8.758;2023-05-10T07:47:55;6.00;;;2.20;;
28022;SDS011;67403;50.104;8.758;2023-05-10T07:50:22;2.20;;;2.00;;
28022;SDS011;67403;50.104;8.758;2023-05-10T07:52:48;5.63;;;2.05;;
28022;SDS011;67403;50.104;8.758;2023-05-10T07:55:15;3.03;;;2.05;;
28022;SDS011;67403;50.104;8.758;2023-05-10T07:57:44;4.63;;;2.17;;
28022;SDS011;67403;50.104;8.758;2023-05-10T08:00:12;5.35;;;2.58;;
28022;SDS011;67403;50.104;8.758;2023-05-10T08:02:44;4.38;;;2.13;;
28022;SDS011;67403;50.104;8.758;2023-05-10T08:05:11;2.53;;;2.10;;
28022;SDS011;67403;50.104;8.758;2023-05-10T08:07:38;2.92;;;2.17;;
28022;SDS011;67403;50.104;8.758;2023-05-10T08:10:06;5.13;;;2.05;;
28022;SDS011;67403;50.104;8.758;2023-05-10T08:12:34;7.75;;;2.40;;
28022;SDS011;67403;50.104;8.758;2023-05-10T08:15:01;4.70;;;2.15;;
28022;SDS011;67403;50.104;8.758;2023-05-10T08:17:28;4.00;;;2.15;;
28022;SDS011;67403;50.104;8.758;2023-05-10T08:19:56;2.58;;;2.03;;
28022;SDS011;67403;50.104;8.758;2023-05-10T08:22:23;3.75;;;2.47;;
28022;SDS011;67403;50.104;8.758;2023-05-10T08:24:51;1.95;;;1.67;;
28022;SDS011;67403;50.104;8.758;2023-05-10T08:27:18;6.80;;;2.00;;
28022;SDS011;67403;50.104;8.758;2023-05-10T08:29:45;4.13;;;2.05;;
28022;SDS011;67403;50.104;8.758;2023-05-10T08:32:12;2.55;;;1.90;;
28022;SDS011;67403;50.104;8.758;2023-05-10T08:34:38;3.97;;;2.03;;
28022;SDS011;67403;50.104;8.758;2023-05-10T08:37:07;1.55;;;1.45;;
28022;SDS011;67403;50.104;8.758;2023-05-10T08:39:34;2.88;;;2.28;;
28022;SDS011;67403;50.104;8.758;2023-05-10T08:42:02;5.25;;;2.10;;
28022;SDS011;67403;50.104;8.758;2023-05-10T08:44:30;3.97;;;1.90;;
28022;SDS011;67403;50.104;8.758;2023-05-10T08:46:59;2.28;;;1.70;;
28022;SDS011;67403;50.104;8.758;2023-05-10T08:49:31;2.97;;;1.92;;
28022;SDS011;67403;50.104;8.758;2023-05-10T08:51:59;7.50;;;2.38;;
28022;SDS011;67403;50.104;8.758;2023-05-10T08:54:32;2.90;;;1.70;;
28022;SDS011;67403;50.104;8.758;2023-05-10T08:57:00;2.63;;;2.00;;
28022;SDS011;67403;50.104;8.758;2023-05-10T08:59:27;3.63;;;1.67;;
28022;SDS011;67403;50.104;8.758;2023-05-10T09:01:55;2.13;;;1.80;;
28022;SDS011;67403;50.104;8.758;2023-05-10T09:04:24;3.05;;;1.98;;
28022;SDS011;67403;50.104;8.758;2023-05-10T09:06:51;7.75;;;1.88;;
28022;SDS011;67403;50.104;8.758;2023-05-10T09:09:18;4.03;;;2.17;;
28022;SDS011;67403;50.104;8.758;2023-05-10T09:11:48;3.95;;;2.00;;
28022;SDS011;67403;50.104;8.758;2023-05-10T09:14:15;2.45;;;1.95;;
28022;SDS011;67403;50.104;8.758;2023-05-10T09:16:42;6.25;;;2.65;;
28022;SDS011;67403;50.104;8.758;2023-05-10T09:19:10;2.70;;;1.80;;
28022;SDS011;67403;50.104;8.758;2023-05-10T09:21:37;2.75;;;1.95;;
28022;SDS011;67403;50.104;8.758;2023-05-10T09:24:04;4.22;;;1.63;;
28022;SDS011;67403;50.104;8.758;2023-05-10T09:26:32;2.67;;;2.00;;
28022;SDS011;67403;50.104;8.758;2023-05-10T09:29:02;3.03;;;1.88;;
28022;SDS011;67403;50.104;8.758;2023-05-10T09:31:46;4.45;;;1.85;;
28022;SDS011;67403;50.104;8.758;2023-05-10T09:34:16;6.22;;;1.70;;
28022;SDS011;67403;50.104;8.758;2023-05-10T09:36:53;3.28;;;1.85;;
28022;SDS011;67403;50.104;8.758;2023-05-10T09:39:28;2.58;;;1.95;;
28022;SDS011;67403;50.104;8.758;2023-05-10T09:41:57;3.15;;;1.77;;
28022;SDS011;67403;50.104;8.758;2023-05-10T09:44:26;4.63;;;2.17;;
28022;SDS011;67403;50.104;8.758;2023-05-10T09:46:53;4.82;;;2.35;;
28022;SDS011;67403;50.104;8.758;2023-05-10T09:49:20;4.30;;;2.55;;
28022;SDS011;67403;50.104;8.758;2023-05-10T09:51:57;3.50;;;1.73;;
28022;SDS011;67403;50.104;8.758;2023-05-10T09:54:26;3.47;;;1.77;;
28022;SDS011;67403;50.104;8.758;2023-05-10T09:56:53;2.95;;;1.90;;
28022;SDS011;67403;50.104;8.758;2023-05-10T09:59:20;4.82;;;1.90;;
28022;SDS011;67403;50.104;8.758;2023-05-10T10:01:52;2.42;;;1.83;;
28022;SDS011;67403;50.104;8.758;2023-05-10T10:04:21;2.15;;;1.55;;
28022;SDS011;67403;50.104;8.758;2023-05-10T10:06:58;3.13;;;2.20;;
28022;SDS011;67403;50.104;8.758;2023-05-10T10:09:26;4.30;;;2.28;;
28022;SDS011;67403;50.104;8.758;2023-05-10T10:11:53;4.47;;;1.98;;
28022;SDS011;67403;50.104;8.758;2023-05-10T10:14:21;2.45;;;2.05;;
28022;SDS011;67403;50.104;8.758;2023-05-10T10:16:49;4.10;;;1.98;;
28022;SDS011;67403;50.104;8.758;2023-05-10T10:19:18;2.30;;;2.05;;
28022;SDS011;67403;50.104;8.758;2023-05-10T10:21:45;4.55;;;2.38;;
28022;SDS011;67403;50.104;8.758;2023-05-10T10:24:12;3.53;;;1.88;;
28022;SDS011;67403;50.104;8.758;2023-05-10T10:26:39;5.03;;;1.90;;
28022;SDS011;67403;50.104;8.758;2023-05-10T10:29:10;3.17;;;2.00;;
28022;SDS011;67403;50.104;8.758;2023-05-10T10:31:47;3.78;;;1.70;;
28022;SDS011;67403;50.104;8.758;2023-05-10T10:34:25;4.68;;;1.67;;
28022;SDS011;67403;50.104;8.758;2023-05-10T10:36:54;2.55;;;1.80;;
28022;SDS011;67403;50.104;8.758;2023-05-10T10:39:22;4.80;;;2.15;;
28022;SDS011;67403;50.104;8.758;2023-05-10T10:41:51;5.60;;;2.45;;
28022;SDS011;67403;50.104;8.758;2023-05-10T10:44:23;4.22;;;2.60;;
28022;SDS011;67403;50.104;8.758;2023-05-10T10:47:06;5.60;;;2.85;;
28022;SDS011;67403;50.104;8.758;2023-05-10T10:49:48;4.68;;;2.58;;
28022;SDS011;67403;50.104;8.758;2023-05-10T10:54:56;4.95;;;2.10;;
28022;SDS011;67403;50.104;8.758;2023-05-10T10:57:25;1.95;;;1.42;;
28022;SDS011;67403;50.104;8.758;2023-05-10T11:02:49;1.90;;;1.35;;
28022;SDS011;67403;50.104;8.758;2023-05-10T11:05:25;1.85;;;1.30;;
28022;SDS011;67403;50.104;8.758;2023-05-10T11:08:08;1.70;;;1.30;;
28022;SDS011;67403;50.104;8.758;2023-05-10T11:10:37;4.75;;;1.40;;
28022;SDS011;67403;50.104;8.758;2023-05-10T11:13:05;5.50;;;1.58;;
28022;SDS011;67403;50.104;8.758;2023-05-10T11:15:34;2.45;;;1.77;;
28022;SDS011;67403;50.104;8.758;2023-05-10T11:18:16;2.53;;;1.45;;
28022;SDS011;67403;50.104;8.758;2023-05-10T11:20:46;8.07;;;4.32;;
28022;SDS011;67403;50.104;8.758;2023-05-10T11:23:16;2.85;;;1.60;;
28022;SDS011;67403;50.104;8.758;2023-05-10T11:25:45;2.70;;;1.30;;
28022;SDS011;67403;50.104;8.758;2023-05-10T11:28:12;2.67;;;1.30;;
28022;SDS011;67403;50.104;8.758;2023-05-10T11:30:40;1.60;;;1.20;;
28022;SDS011;67403;50.104;8.758;2023-05-10T11:33:09;1.63;;;1.15;;
28022;SDS011;67403;50.104;8.758;2023-05-10T11:35:41;1.83;;;1.40;;
28022;SDS011;67403;50.104;8.758;2023-05-10T11:38:10;1.65;;;1.20;;
28022;SDS011;67403;50.104;8.758;2023-05-10T11:40:38;1.35;;;1.25;;
28022;SDS011;67403;50.104;8.758;2023-05-10T11:43:05;3.83;;;1.25;;
28022;SDS011;67403;50.104;8.758;2023-05-10T11:45:34;1.48;;;1.30;;
28022;SDS011;67403;50.104;8.758;2023-05-10T11:48:02;3.88;;;1.80;;
28022;SDS011;67403;50.104;8.758;2023-05-10T11:50:29;10.10;;;1.90;;
28022;SDS011;67403;50.104;8.758;2023-05-10T11:52:56;2.08;;;1.50;;
28022;SDS011;67403;50.104;8.758;2023-05-10T11:55:25;2.63;;;1.40;;
28022;SDS011;67403;50.104;8.758;2023-05-10T11:57:52;8.10;;;1.90;;
28022;SDS011;67403;50.104;8.758;2023-05-10T12:00:20;2.30;;;1.80;;
28022;SDS011;67403;50.104;8.758;2023-05-10T12:02:48;3.47;;;1.70;;
28022;SDS011;67403;50.104;8.758;2023-05-10T12:05:15;3.25;;;1.40;;
28022;SDS011;67403;50.104;8.758;2023-05-10T12:07:43;2.38;;;1.55;;
28022;SDS011;67403;50.104;8.758;2023-05-10T12:10:10;2.08;;;1.50;;
28022;SDS011;67403;50.104;8.758;2023-05-10T12:12:41;1.73;;;1.40;;
28022;SDS011;67403;50.104;8.758;2023-05-10T12:17:38;1.67;;;1.58;;
28022;SDS011;67403;50.104;8.758;2023-05-10T12:20:18;1.95;;;1.50;;
28022;SDS011;67403;50.104;8.758;2023-05-10T12:22:46;1.95;;;1.40;;
28022;SDS011;67403;50.104;8.758;2023-05-10T12:25:15;3.67;;;1.57;;
28022;SDS011;67403;50.104;8.758;2023-05-10T12:27:51;1.60;;;1.50;;
28022;SDS011;67403;50.104;8.758;2023-05-10T12:30:20;2.03;;;1.55;;
28022;SDS011;67403;50.104;8.758;2023-05-10T12:32:48;1.95;;;1.60;;
28022;SDS011;67403;50.104;8.758;2023-05-10T12:35:15;1.45;;;1.17;;
28022;SDS011;67403;50.104;8.758;2023-05-10T12:37:44;1.88;;;1.30;;
28022;SDS011;67403;50.104;8.758;2023-05-10T12:40:11;0.93;;;0.93;;
28022;SDS011;67403;50.104;8.758;2023-05-10T12:42:38;2.10;;;1.10;;
28022;SDS011;67403;50.104;8.758;2023-05-10T12:45:07;1.20;;;1.10;;
28022;SDS011;67403;50.104;8.758;2023-05-10T12:47:35;3.25;;;1.20;;
28022;SDS011;67403;50.104;8.758;2023-05-10T12:50:02;1.67;;;1.23;;
28022;SDS011;67403;50.104;8.758;2023-05-10T12:52:30;1.20;;;1.10;;
28022;SDS011;67403;50.104;8.758;2023-05-10T12:54:58;1.23;;;1.10;;
28022;SDS011;67403;50.104;8.758;2023-05-10T12:57:26;1.48;;;1.00;;
28022;SDS011;67403;50.104;8.758;2023-05-10T12:59:53;1.50;;;0.98;;
28022;SDS011;67403;50.104;8.758;2023-05-10T13:02:22;1.30;;;1.20;;
28022;SDS011;67403;50.104;8.758;2023-05-10T13:04:49;1.95;;;1.10;;
28022;SDS011;67403;50.104;8.758;2023-05-10T13:07:16;1.25;;;1.00;;
28022;SDS011;67403;50.104;8.758;2023-05-10T13:09:43;1.30;;;1.20;;
28022;SDS011;67403;50.104;8.758;2023-05-10T13:12:10;1.90;;;0.90;;
28022;SDS011;67403;50.104;8.758;2023-05-10T13:14:37;1.17;;;0.98;;
28022;SDS011;67403;50.104;8.758;2023-05-10T13:17:05;0.93;;;0.90;;
28022;SDS011;67403;50.104;8.758;2023-05-10T13:19:34;1.67;;;0.98;;
28022;SDS011;67403;50.104;8.758;2023-05-10T13:22:01;2.75;;;1.55;;
28022;SDS011;67403;50.104;8.758;2023-05-10T13:24:29;1.20;;;1.00;;
28022;SDS011;67403;50.104;8.758;2023-05-10T13:26:56;1.40;;;0.80;;
28022;SDS011;67403;50.104;8.758;2023-05-10T13:29:23;0.88;;;0.88;;
28022;SDS011;67403;50.104;8.758;2023-05-10T13:31:50;1.05;;;0.95;;
28022;SDS011;67403;50.104;8.758;2023-05-10T13:34:17;1.80;;;0.80;;
28022;SDS011;67403;50.104;8.758;2023-05-10T13:36:47;1.55;;;1.00;;
28022;SDS011;67403;50.104;8.758;2023-05-10T13:39:14;1.02;;;1.00;;
28022;SDS011;67403;50.104;8.758;2023-05-10T13:41:41;1.00;;;0.90;;
28022;SDS011;67403;50.104;8.758;2023-05-10T13:44:08;0.80;;;0.80;;
28022;SDS011;67403;50.104;8.758;2023-05-10T13:46:36;0.88;;;0.88;;
28022;SDS011;67403;50.104;8.758;2023-05-10T13:49:04;0.93;;;0.75;;
28022;SDS011;67403;50.104;8.758;2023-05-10T13:51:32;2.05;;;1.10;;
28022;SDS011;67403;50.104;8.758;2023-05-10T13:54:01;0.73;;;0.73;;
28022;SDS011;67403;50.104;8.758;2023-05-10T13:56:28;0.93;;;0.80;;
28022;SDS011;67403;50.104;8.758;2023-05-10T13:58:55;1.90;;;1.00;;
28022;SDS011;67403;50.104;8.758;2023-05-10T14:01:23;2.60;;;1.00;;
28022;SDS011;67403;50.104;8.758;2023-05-10T14:03:50;1.42;;;1.23;;
28022;SDS011;67403;50.104;8.758;2023-05-10T14:06:17;1.35;;;1.00;;
28022;SDS011;67403;50.104;8.758;2023-05-10T14:08:44;2.50;;;1.65;;
28022;SDS011;67403;50.104;8.758;2023-05-10T14:11:12;1.38;;;1.13;;
28022;SDS011;67403;50.104;8.758;2023-05-10T14:13:40;3.83;;;2.60;;
28022;SDS011;67403;50.104;8.758;2023-05-10T14:16:07;3.53;;;1.20;;
28022;SDS011;67403;50.104;8.758;2023-05-10T14:18:34;2.35;;;0.80;;
28022;SDS011;67403;50.104;8.758;2023-05-10T14:21:01;0.85;;;0.80;;
28022;SDS011;67403;50.104;8.758;2023-05-10T14:23:29;1.42;;;0.77;;
28022;SDS011;67403;50.104;8.758;2023-05-10T14:25:56;1.88;;;1.00;;
28022;SDS011;67403;50.104;8.758;2023-05-10T14:28:24;0.70;;;0.70;;
28022;SDS011;67403;50.104;8.758;2023-05-10T14:30:51;1.00;;;0.70;;
28022;SDS011;67403;50.104;8.758;2023-05-10T14:33:18;1.67;;;1.20;;
28022;SDS011;67403;50.104;8.758;2023-05-10T14:35:46;1.02;;;0.93;;
28022;SDS011;67403;50.104;8.758;2023-05-10T14:38:13;1.20;;;0.90;;
28022;SDS011;67403;50.104;8.758;2023-05-10T14:40:40;1.35;;;1.00;;
28022;SDS011;67403;50.104;8.758;2023-05-10T14:43:07;2.60;;;1.00;;
28022;SDS011;67403;50.104;8.758;2023-05-10T14:45:35;1.20;;;0.95;;
28022;SDS011;67403;50.104;8.758;2023-05-10T14:48:02;2.88;;;1.10;;
28022;SDS011;67403;50.104;8.758;2023-05-10T14:50:29;1.52;;;1.02;;
28022;SDS011;67403;50.104;8.758;2023-05-10T14:52:56;1.52;;;0.90;;
28022;SDS011;67403;50.104;8.758;2023-05-10T14:55:24;2.17;;;0.90;;
28022;SDS011;67403;50.104;8.758;2023-05-10T14:57:51;1.25;;;1.15;;
28022;SDS011;67403;50.104;8.758;2023-05-10T15:00:18;0.98;;;0.85;;
28022;SDS011;67403;50.104;8.758;2023-05-10T15:02:47;0.90;;;0.80;;
28022;SDS011;67403;50.104;8.758;2023-05-10T15:05:14;2.20;;;1.30;;
28022;SDS011;67403;50.104;8.758;2023-05-10T15:07:41;0.93;;;0.82;;